createdAt,value
2018-07-27T00:02:26.198Z,22.60
2018-07-27T00:04:54.734Z,22.60
2018-07-27T00:07:23.171Z,22.60
2018-07-27T00:09:52.199Z,22.60
2018-07-27T00:12:20.672Z,22.60
2018-07-27T00:14:49.168Z,22.50
2018-07-27T00:17:17.658Z,22.50
2018-07-27T00:19:46.144Z,22.40
2018-07-27T00:22:14.638Z,22.40
2018-07-27T00:24:43.076Z,22.30
2018-07-27T00:27:11.591Z,22.20
2018-07-27T00:29:40.023Z,22.10
2018-07-27T00:32:08.571Z,22.00
2018-07-27T00:34:37.184Z,22.00
2018-07-27T00:37:06.004Z,21.90
2018-07-27T00:39:34.451Z,21.90
2018-07-27T00:42:02.972Z,21.80
2018-07-27T00:44:31.464Z,21.80
2018-07-27T00:47:00.330Z,21.70
2018-07-27T00:49:28.844Z,21.60
2018-07-27T00:51:57.417Z,21.50
2018-07-27T00:54:25.867Z,21.50
2018-07-27T00:56:54.394Z,21.40
2018-07-27T00:59:23.376Z,21.30
2018-07-27T01:01:51.886Z,21.30
2018-07-27T01:04:20.327Z,21.20
2018-07-27T01:06:48.870Z,21.20
2018-07-27T01:09:17.299Z,21.20
2018-07-27T01:11:45.953Z,21.20
2018-07-27T01:14:14.399Z,21.20
2018-07-27T01:16:42.884Z,21.20
2018-07-27T01:19:11.367Z,21.20
2018-07-27T01:21:39.820Z,21.10
2018-07-27T01:24:08.352Z,21.10
2018-07-27T01:26:36.847Z,21.10
2018-07-27T01:29:05.936Z,21.20
2018-07-27T01:31:34.721Z,21.20
2018-07-27T01:34:03.256Z,21.20
2018-07-27T01:36:31.710Z,21.20
2018-07-27T01:39:00.258Z,21.30
2018-07-27T01:41:28.755Z,21.20
2018-07-27T01:43:57.283Z,21.20
2018-07-27T01:46:25.734Z,21.20
2018-07-27T01:48:54.531Z,21.10
2018-07-27T01:51:23.044Z,21.10
2018-07-27T01:53:51.524Z,21.00
2018-07-27T01:56:19.959Z,20.90
2018-07-27T01:58:48.451Z,20.80
2018-07-27T02:01:16.901Z,20.80
2018-07-27T02:03:45.571Z,20.80
2018-07-27T02:06:14.014Z,20.70
2018-07-27T02:08:42.563Z,20.70
2018-07-27T02:11:11.012Z,20.60
2018-07-27T02:13:39.846Z,20.60
2018-07-27T02:16:08.325Z,20.50
2018-07-27T02:18:36.805Z,20.40
2018-07-27T02:23:33.565Z,20.30
2018-07-27T02:26:02.345Z,20.30
2018-07-27T02:28:30.824Z,20.20
2018-07-27T02:30:59.299Z,20.20
2018-07-27T02:33:27.805Z,20.10
2018-07-27T02:35:56.320Z,20.00
2018-07-27T02:38:24.922Z,20.00
2018-07-27T02:40:53.424Z,19.90
2018-07-27T02:43:21.868Z,19.90
2018-07-27T02:45:50.692Z,19.80
2018-07-27T02:48:19.186Z,19.70
2018-07-27T02:50:47.638Z,19.70
2018-07-27T02:53:16.135Z,19.70
2018-07-27T02:55:44.629Z,19.70
2018-07-27T03:00:41.683Z,19.70
2018-07-27T03:03:10.165Z,19.60
2018-07-27T03:05:38.611Z,19.70
2018-07-27T03:08:07.077Z,19.70
2018-07-27T03:10:35.530Z,19.70
2018-07-27T03:13:04.731Z,19.70
2018-07-27T03:15:33.202Z,19.70
2018-07-27T03:18:01.643Z,19.70
2018-07-27T03:20:30.148Z,19.60
2018-07-27T03:22:58.620Z,19.60
2018-07-27T03:25:27.091Z,19.60
2018-07-27T03:27:55.526Z,19.50
2018-07-27T03:30:24.337Z,19.40
2018-07-27T03:32:52.772Z,19.30
2018-07-27T03:35:21.239Z,19.30
2018-07-27T03:37:49.654Z,19.30
2018-07-27T03:40:18.146Z,19.30
2018-07-27T03:42:46.600Z,19.30
2018-07-27T03:45:15.076Z,19.30
2018-07-27T03:47:43.528Z,19.30
2018-07-27T03:52:40.191Z,19.30
2018-07-27T03:55:08.698Z,19.30
2018-07-27T03:57:37.136Z,19.30
2018-07-27T04:00:08.499Z,19.20
2018-07-27T04:02:36.986Z,19.20
2018-07-27T04:05:05.841Z,19.10
2018-07-27T04:07:34.288Z,19.00
2018-07-27T04:10:02.941Z,19.00
2018-07-27T04:12:31.374Z,19.00
2018-07-27T04:14:59.904Z,19.00
2018-07-27T04:17:28.527Z,19.10
2018-07-27T04:19:57.017Z,19.10
2018-07-27T04:22:25.503Z,19.10
2018-07-27T04:24:54.162Z,19.10
2018-07-27T04:27:22.631Z,19.10
2018-07-27T04:29:51.107Z,19.10
2018-07-27T04:32:19.567Z,19.10
2018-07-27T04:34:48.042Z,19.10
2018-07-27T04:37:16.527Z,19.00
2018-07-27T04:39:45.007Z,19.00
2018-07-27T04:42:13.519Z,19.10
2018-07-27T04:44:42.442Z,19.10
2018-07-27T04:47:10.871Z,19.10
2018-07-27T04:49:39.299Z,19.20
2018-07-27T04:52:07.788Z,19.30
2018-07-27T04:54:36.250Z,19.30
2018-07-27T04:57:05.049Z,19.40
2018-07-27T04:59:33.915Z,19.40
2018-07-27T05:02:02.554Z,19.50
2018-07-27T05:04:35.340Z,19.50
2018-07-27T05:07:13.045Z,19.60
2018-07-27T05:12:15.216Z,19.70
2018-07-27T05:17:28.755Z,19.90
2018-07-27T05:20:10.568Z,20.00
2018-07-27T05:22:48.274Z,20.00
2018-07-27T05:27:49.778Z,20.30
2018-07-27T05:30:18.210Z,20.40
2018-07-27T05:32:46.972Z,20.50
2018-07-27T05:35:15.403Z,20.50
2018-07-27T05:37:43.888Z,20.70
2018-07-27T05:40:12.355Z,20.70
2018-07-27T05:42:40.841Z,20.80
2018-07-27T05:45:09.642Z,20.90
2018-07-27T05:47:38.119Z,21.10
2018-07-27T05:50:06.920Z,21.20
2018-07-27T05:52:35.447Z,21.30
2018-07-27T05:55:03.915Z,21.40
2018-07-27T05:57:32.632Z,21.60
2018-07-27T06:00:01.082Z,21.70
2018-07-27T06:02:29.550Z,21.80
2018-07-27T06:04:57.989Z,22.00
2018-07-27T06:07:26.840Z,22.10
2018-07-27T06:09:59.490Z,22.20
2018-07-27T06:12:47.666Z,22.30
2018-07-27T06:15:16.968Z,22.40
2018-07-27T06:17:46.594Z,22.50
2018-07-27T06:20:15.422Z,22.60
2018-07-27T06:22:43.890Z,22.70
2018-07-27T06:25:12.642Z,22.80
2018-07-27T06:27:41.128Z,23.00
2018-07-27T06:30:09.571Z,23.20
2018-07-27T06:32:38.433Z,23.30
2018-07-27T06:35:07.228Z,23.40
2018-07-27T06:37:35.731Z,23.50
2018-07-27T06:40:04.468Z,23.60
2018-07-27T06:42:32.994Z,23.60
2018-07-27T06:47:29.776Z,23.90
2018-07-27T06:49:58.211Z,23.90
2018-07-27T06:52:26.709Z,23.90
2018-07-27T06:54:55.670Z,23.90
2018-07-27T06:57:24.118Z,23.90
2018-07-27T06:59:52.604Z,24.00
2018-07-27T07:02:21.047Z,23.90
2018-07-27T07:04:49.771Z,23.90
2018-07-27T07:07:18.218Z,24.00
2018-07-27T07:09:46.671Z,23.90
2018-07-27T07:12:15.117Z,23.80
2018-07-27T07:14:43.599Z,23.70
2018-07-27T07:17:12.140Z,23.80
2018-07-27T07:19:40.602Z,23.70
2018-07-27T07:22:09.064Z,23.80
2018-07-27T07:24:37.532Z,24.00
2018-07-27T07:27:06.005Z,24.10
2018-07-27T07:29:34.486Z,24.20
2018-07-27T07:32:03.261Z,24.30
2018-07-27T07:34:31.736Z,24.40
2018-07-27T07:37:00.187Z,24.50
2018-07-27T07:39:28.659Z,24.60
2018-07-27T07:41:57.671Z,24.90
2018-07-27T07:44:27.671Z,25.10
2018-07-27T07:46:56.638Z,25.20
2018-07-27T07:49:25.666Z,25.40
2018-07-27T07:51:54.851Z,25.60
2018-07-27T07:54:23.885Z,25.70
2018-07-27T07:56:52.861Z,25.80
2018-07-27T07:59:21.893Z,26.00
2018-07-27T08:01:50.872Z,26.20
2018-07-27T08:04:20.000Z,26.40
2018-07-27T08:06:49.136Z,26.50
2018-07-27T08:09:18.150Z,26.50
2018-07-27T08:11:47.161Z,26.70
2018-07-27T08:14:16.170Z,26.60
2018-07-27T08:16:45.191Z,26.70
2018-07-27T08:19:14.212Z,26.80
2018-07-27T08:21:43.180Z,27.00
2018-07-27T08:24:12.203Z,27.10
2018-07-27T08:26:48.511Z,27.20
2018-07-27T08:31:48.948Z,27.60
2018-07-27T08:37:00.929Z,28.00
2018-07-27T08:39:32.307Z,28.20
2018-07-27T08:42:01.517Z,28.40
2018-07-27T08:44:33.508Z,28.50
2018-07-27T08:47:02.883Z,28.60
2018-07-27T08:49:34.007Z,28.70
2018-07-27T08:52:03.110Z,28.70
2018-07-27T08:54:32.229Z,28.70
2018-07-27T08:57:01.228Z,28.70
2018-07-27T08:59:30.245Z,28.70
2018-07-27T09:01:59.218Z,28.90
2018-07-27T09:04:28.659Z,29.10
2018-07-27T09:06:57.974Z,29.40
2018-07-27T09:09:37.126Z,29.50
2018-07-27T09:12:06.455Z,29.60
2018-07-27T09:14:35.649Z,29.80
2018-07-27T09:17:04.735Z,29.80
2018-07-27T09:19:34.009Z,29.70
2018-07-27T09:22:24.193Z,29.70
2018-07-27T09:24:53.596Z,29.40
2018-07-27T09:27:22.698Z,29.30
2018-07-27T09:29:51.723Z,29.50
2018-07-27T09:32:20.732Z,29.80
2018-07-27T09:34:49.746Z,30.10
2018-07-27T09:37:18.737Z,30.20
2018-07-27T09:39:47.745Z,30.30
2018-07-27T09:42:16.711Z,30.60
2018-07-27T09:44:45.740Z,30.80
2018-07-27T09:47:14.859Z,31.10
2018-07-27T09:49:45.470Z,31.40
2018-07-27T09:52:14.470Z,31.60
2018-07-27T09:54:43.499Z,31.80
2018-07-27T09:57:12.475Z,31.50
2018-07-27T09:59:41.576Z,31.10
2018-07-27T10:02:10.590Z,31.00
2018-07-27T10:07:08.647Z,31.20
2018-07-27T10:09:37.640Z,31.30
2018-07-27T10:12:06.767Z,31.50
2018-07-27T10:14:35.755Z,31.70
2018-07-27T10:17:04.956Z,31.50
2018-07-27T10:19:33.969Z,31.40
2018-07-27T10:22:03.004Z,30.90
2018-07-27T10:24:31.983Z,30.80
2018-07-27T10:27:01.195Z,30.60
2018-07-27T10:29:30.175Z,30.50
2018-07-27T10:31:59.216Z,30.40
2018-07-27T10:34:28.330Z,30.20
2018-07-27T10:36:57.876Z,30.10
2018-07-27T10:39:27.051Z,30.00
2018-07-27T10:41:56.087Z,29.80
2018-07-27T10:44:25.198Z,29.90
2018-07-27T10:46:54.227Z,29.70
2018-07-27T10:49:23.204Z,29.70
2018-07-27T10:51:52.251Z,29.70
2018-07-27T10:54:21.818Z,29.70
2018-07-27T10:56:50.836Z,29.60
2018-07-27T10:59:19.827Z,29.50
2018-07-27T11:01:48.867Z,29.50
2018-07-27T11:06:50.186Z,29.50
2018-07-27T11:09:20.769Z,29.50
2018-07-27T11:11:50.108Z,29.50
2018-07-27T11:14:19.248Z,29.50
2018-07-27T11:16:48.558Z,29.50
2018-07-27T11:21:46.614Z,29.30
2018-07-27T11:24:15.633Z,29.30
2018-07-27T11:29:13.365Z,29.00
2018-07-27T11:31:42.663Z,29.00
2018-07-27T11:34:11.654Z,29.00
2018-07-27T11:36:40.768Z,28.90
2018-07-27T11:39:11.454Z,29.00
2018-07-27T11:41:40.779Z,28.80
2018-07-27T11:44:09.771Z,28.70
2018-07-27T11:46:38.820Z,28.70
2018-07-27T11:49:07.803Z,28.40
2018-07-27T11:51:36.832Z,28.20
2018-07-27T11:54:05.862Z,28.00
2018-07-27T11:56:34.874Z,28.00
2018-07-27T11:59:03.871Z,28.00
2018-07-27T12:01:32.948Z,27.90
2018-07-27T12:04:02.179Z,27.80
2018-07-27T12:09:02.008Z,27.70
2018-07-27T12:11:31.037Z,27.80
2018-07-27T12:14:00.085Z,27.80
2018-07-27T12:16:29.313Z,27.70
2018-07-27T12:18:58.311Z,27.60
2018-07-27T12:21:27.575Z,27.60
2018-07-27T12:23:56.514Z,27.60
2018-07-27T12:26:25.542Z,27.60
2018-07-27T12:28:54.896Z,27.60
2018-07-27T12:31:24.128Z,27.70
2018-07-27T12:33:53.223Z,27.70
2018-07-27T12:36:22.208Z,27.70
2018-07-27T12:38:51.233Z,27.70
2018-07-27T12:41:20.415Z,27.80
2018-07-27T12:43:49.440Z,27.80
2018-07-27T12:46:18.448Z,27.90
2018-07-27T12:48:47.515Z,27.70
2018-07-27T12:53:45.415Z,27.80
2018-07-27T12:56:14.582Z,28.00
2018-07-27T12:58:44.449Z,28.20
2018-07-27T13:01:13.447Z,28.30
2018-07-27T13:03:42.472Z,28.40
2018-07-27T13:06:11.458Z,28.60
2018-07-27T13:08:45.905Z,29.00
2018-07-27T13:11:14.955Z,29.30
2018-07-27T13:13:43.959Z,29.50
2018-07-27T13:16:12.988Z,29.70
2018-07-27T13:18:42.015Z,29.60
2018-07-27T13:21:12.084Z,29.80
2018-07-27T13:23:53.794Z,30.00
2018-07-27T13:28:52.093Z,30.70
2018-07-27T13:31:58.564Z,31.00
2018-07-27T13:37:08.130Z,30.80
2018-07-27T13:39:37.978Z,30.70
2018-07-27T13:42:08.431Z,30.60
2018-07-27T13:44:38.177Z,30.60
2018-07-27T13:47:07.951Z,30.40
2018-07-27T13:49:36.975Z,30.40
2018-07-27T13:52:06.005Z,30.50
2018-07-27T13:54:35.619Z,30.40
2018-07-27T13:57:06.287Z,30.40
2018-07-27T13:59:35.291Z,30.30
2018-07-27T14:02:04.694Z,30.10
2018-07-27T14:04:33.689Z,30.10
2018-07-27T14:07:03.739Z,30.20
2018-07-27T14:09:32.782Z,30.20
2018-07-27T14:12:01.835Z,30.40
2018-07-27T14:14:30.839Z,30.60
2018-07-27T14:17:00.016Z,30.90
2018-07-27T14:19:29.942Z,30.90
2018-07-27T14:21:58.947Z,31.20
2018-07-27T14:24:27.959Z,31.40
2018-07-27T14:26:57.019Z,31.70
2018-07-27T14:29:26.046Z,31.70
2018-07-27T14:31:55.064Z,31.70
2018-07-27T14:34:24.090Z,31.90
2018-07-27T14:36:53.116Z,32.30
2018-07-27T14:39:22.316Z,32.60
2018-07-27T14:41:51.311Z,32.50
2018-07-27T14:44:20.362Z,32.90
2018-07-27T14:46:50.000Z,33.00
2018-07-27T14:49:19.036Z,33.00
2018-07-27T14:51:48.028Z,33.10
2018-07-27T14:54:17.095Z,33.10
2018-07-27T14:56:46.145Z,32.90
2018-07-27T14:59:15.183Z,32.50
2018-07-27T15:01:44.220Z,32.20
2018-07-27T15:04:13.408Z,32.30
2018-07-27T15:06:42.749Z,32.50
2018-07-27T15:09:13.659Z,32.70
2018-07-27T15:11:43.339Z,32.60
2018-07-27T15:14:12.388Z,32.80
2018-07-27T15:16:41.406Z,32.90
2018-07-27T15:19:10.436Z,32.80
2018-07-27T15:21:39.419Z,32.70
2018-07-27T15:24:08.431Z,32.70
2018-07-27T15:26:37.447Z,32.50
2018-07-27T15:29:06.471Z,32.40
2018-07-27T15:31:35.632Z,32.30
2018-07-27T15:34:05.026Z,32.20
2018-07-27T15:36:34.179Z,32.20
2018-07-27T15:39:03.596Z,32.20
2018-07-27T15:41:32.576Z,32.20
2018-07-27T15:44:01.604Z,32.20
2018-07-27T15:46:30.778Z,31.90
2018-07-27T15:48:59.778Z,31.90
2018-07-27T15:51:28.942Z,32.00
2018-07-27T15:53:58.206Z,31.80
2018-07-27T15:56:27.226Z,31.90
2018-07-27T15:58:56.323Z,31.90
2018-07-27T16:03:54.055Z,31.90
2018-07-27T16:06:23.227Z,31.80
2018-07-27T16:08:52.204Z,31.60
2018-07-27T16:11:21.576Z,31.60
2018-07-27T16:13:50.557Z,31.40
2018-07-27T16:16:20.150Z,31.30
2018-07-27T16:18:49.154Z,31.10
2018-07-27T16:21:18.216Z,30.90
2018-07-27T16:23:47.564Z,30.90
2018-07-27T16:26:16.952Z,30.90
2018-07-27T16:28:45.936Z,30.90
2018-07-27T16:31:14.971Z,30.90
2018-07-27T16:33:43.953Z,30.90
2018-07-27T16:36:12.991Z,31.00
2018-07-27T16:38:41.971Z,30.90
2018-07-27T16:41:11.012Z,30.70
2018-07-27T16:43:40.037Z,30.60
2018-07-27T16:46:09.076Z,30.50
2018-07-27T16:48:38.080Z,30.40
2018-07-27T16:51:07.102Z,30.30
2018-07-27T16:53:36.106Z,30.20
2018-07-27T16:56:05.159Z,30.20
2018-07-27T16:58:34.147Z,30.10
2018-07-27T17:01:03.166Z,30.10
2018-07-27T17:03:32.174Z,30.10
2018-07-27T17:06:01.656Z,30.10
2018-07-27T17:08:31.187Z,30.00
2018-07-27T17:11:00.204Z,30.00
2018-07-27T17:13:29.255Z,29.90
2018-07-27T17:15:58.629Z,29.80
2018-07-27T17:18:27.649Z,29.80
2018-07-27T17:20:56.684Z,29.70
2018-07-27T17:23:25.667Z,29.60
2018-07-27T17:25:54.698Z,29.60
2018-07-27T17:28:23.772Z,29.50
2018-07-27T17:30:53.132Z,29.40
2018-07-27T17:33:22.142Z,29.40
2018-07-27T17:35:51.152Z,29.30
2018-07-27T17:38:20.134Z,29.20
2018-07-27T17:40:49.187Z,29.10
2018-07-27T17:43:18.563Z,28.90
2018-07-27T17:45:47.652Z,28.80
2018-07-27T17:48:16.994Z,28.70
2018-07-27T17:50:46.587Z,28.70
2018-07-27T17:53:15.599Z,28.60
2018-07-27T17:55:44.615Z,28.50
2018-07-27T17:58:13.615Z,28.40
2018-07-27T18:00:42.640Z,28.40
2018-07-27T18:03:11.620Z,28.30
2018-07-27T18:05:40.686Z,28.30
2018-07-27T18:08:09.738Z,28.20
2018-07-27T18:13:07.909Z,28.10
2018-07-27T18:15:37.182Z,28.10
2018-07-27T18:18:06.304Z,28.00
2018-07-27T18:20:35.373Z,27.80
2018-07-27T18:23:04.440Z,27.80
2018-07-27T18:25:33.744Z,27.70
2018-07-27T18:28:02.752Z,27.50
2018-07-27T18:30:31.793Z,27.50
2018-07-27T18:33:00.787Z,27.40
2018-07-27T18:35:30.168Z,27.30
2018-07-27T18:37:59.179Z,27.30
2018-07-27T18:40:28.189Z,27.10
2018-07-27T18:42:57.187Z,27.00
2018-07-27T18:45:26.249Z,27.00
2018-07-27T18:47:55.243Z,26.90
2018-07-27T18:50:24.227Z,26.80
2018-07-27T18:52:53.260Z,26.70
2018-07-27T18:55:22.248Z,26.70
2018-07-27T19:00:19.912Z,26.50
2018-07-27T19:02:48.943Z,26.40
2018-07-27T19:05:17.935Z,26.20
2018-07-27T19:07:46.950Z,26.10
2018-07-27T19:10:15.927Z,26.00
2018-07-27T19:12:44.954Z,25.90
2018-07-27T19:15:13.979Z,25.80
2018-07-27T19:17:43.013Z,25.70
2018-07-27T19:20:11.982Z,25.60
2018-07-27T19:22:41.000Z,25.50
2018-07-27T19:25:10.002Z,25.40
2018-07-27T19:27:39.369Z,25.30
2018-07-27T19:30:10.718Z,25.20
2018-07-27T19:32:39.736Z,25.10
2018-07-27T19:35:08.782Z,25.00
2018-07-27T19:37:37.827Z,24.90
2018-07-27T19:40:06.822Z,24.80
2018-07-27T19:42:35.883Z,24.70
2018-07-27T19:45:05.633Z,24.60
2018-07-27T19:47:34.658Z,24.50
2018-07-27T19:50:03.143Z,24.50
2018-07-27T19:52:31.631Z,24.40
2018-07-27T19:55:00.091Z,24.20
2018-07-27T19:57:28.991Z,24.20
2018-07-27T19:59:57.436Z,24.10
2018-07-27T20:02:26.235Z,24.00
2018-07-27T20:04:54.867Z,24.00
2018-07-27T20:07:23.711Z,23.90
2018-07-27T20:09:52.167Z,23.80
2018-07-27T20:12:20.602Z,23.70
2018-07-27T20:14:49.071Z,23.60
2018-07-27T20:17:17.538Z,23.50
2018-07-27T20:19:46.024Z,23.30
2018-07-27T20:22:14.475Z,23.30
2018-07-27T20:24:42.935Z,23.10
2018-07-27T20:27:11.379Z,23.00
2018-07-27T20:29:39.862Z,23.00
2018-07-27T20:32:08.652Z,23.00
2018-07-27T20:34:37.141Z,22.90
2018-07-27T20:37:06.620Z,23.00
2018-07-27T20:39:35.154Z,22.80
2018-07-27T20:42:03.671Z,22.80
2018-07-27T20:44:32.134Z,22.80
2018-07-27T20:47:00.591Z,22.80
2018-07-27T20:49:29.088Z,22.80
2018-07-27T20:52:00.495Z,22.70
2018-07-27T20:54:29.325Z,22.70
2018-07-27T20:56:58.067Z,22.60
2018-07-27T20:59:26.555Z,22.60
2018-07-27T21:01:55.003Z,22.50
2018-07-27T21:04:23.472Z,22.50
2018-07-27T21:06:52.105Z,22.40
2018-07-27T21:09:20.588Z,22.30
2018-07-27T21:11:49.051Z,22.30
2018-07-27T21:14:17.524Z,22.20
2018-07-27T21:16:45.999Z,22.10
2018-07-27T21:19:14.659Z,22.10
2018-07-27T21:21:43.155Z,22.00
2018-07-27T21:24:11.738Z,22.00
2018-07-27T21:26:40.199Z,21.90
2018-07-27T21:29:08.685Z,21.90
2018-07-27T21:31:37.167Z,21.90
2018-07-27T21:34:05.654Z,21.80
2018-07-27T21:36:34.187Z,21.80
2018-07-27T21:39:02.913Z,21.70
2018-07-27T21:41:31.387Z,21.60
2018-07-27T21:43:59.818Z,21.60
2018-07-27T21:46:28.323Z,21.60
2018-07-27T21:48:57.122Z,21.50
2018-07-27T21:51:25.589Z,21.50
2018-07-27T21:53:54.068Z,21.50
2018-07-27T21:56:22.500Z,21.50
2018-07-27T21:58:51.019Z,21.50
2018-07-27T22:01:19.542Z,21.50
2018-07-27T22:03:48.027Z,21.40
2018-07-27T22:06:16.469Z,21.30
2018-07-27T22:08:44.967Z,21.20
2018-07-27T22:11:13.764Z,21.20
2018-07-27T22:13:42.281Z,21.10
2018-07-27T22:16:10.779Z,21.00
2018-07-27T22:18:39.273Z,20.90
2018-07-27T22:21:07.739Z,20.90
2018-07-27T22:23:36.276Z,20.80
2018-07-27T22:26:04.963Z,20.90
2018-07-27T22:28:33.512Z,20.90
2018-07-27T22:31:02.011Z,20.90
2018-07-27T22:33:30.521Z,20.90
2018-07-27T22:35:59.008Z,20.90
2018-07-27T22:38:27.485Z,20.90
2018-07-27T22:40:56.332Z,20.80
2018-07-27T22:43:24.815Z,20.80
2018-07-27T22:45:53.266Z,20.70
2018-07-27T22:48:22.116Z,20.60
2018-07-27T22:50:50.619Z,20.60
2018-07-27T22:53:19.210Z,20.50
2018-07-27T22:55:47.650Z,20.40
2018-07-27T22:58:16.186Z,20.30
2018-07-27T23:00:44.834Z,20.30
2018-07-27T23:03:13.298Z,20.40
2018-07-27T23:05:41.771Z,20.30
2018-07-27T23:08:10.821Z,20.40
2018-07-27T23:10:39.460Z,20.40
2018-07-27T23:13:08.828Z,20.40
2018-07-27T23:15:37.532Z,20.40
2018-07-27T23:18:06.033Z,20.40
2018-07-27T23:20:34.516Z,20.40
2018-07-27T23:25:31.187Z,20.30
2018-07-27T23:27:59.662Z,20.30
2018-07-27T23:30:28.534Z,20.30
2018-07-27T23:32:56.972Z,20.30
2018-07-27T23:35:25.422Z,20.30
2018-07-27T23:37:53.902Z,20.30
2018-07-27T23:40:22.343Z,20.30
2018-07-27T23:42:50.844Z,20.30
2018-07-27T23:45:19.316Z,20.30
2018-07-27T23:47:48.182Z,20.30
2018-07-27T23:50:16.683Z,20.30
2018-07-27T23:52:45.170Z,20.30
2018-07-27T23:55:13.675Z,20.30
2018-07-27T23:57:42.155Z,20.30
